createdAt,value
2023-11-18T00:00:25.252Z,6.01
2023-11-18T00:01:25.303Z,5.97
2023-11-18T00:02:25.394Z,5.99
2023-11-18T00:03:25.343Z,5.96
2023-11-18T00:04:25.267Z,5.94
2023-11-18T00:05:25.192Z,5.94
2023-11-18T00:06:25.184Z,5.94
2023-11-18T00:07:25.211Z,5.93
2023-11-18T00:08:25.218Z,5.89
2023-11-18T00:09:25.156Z,5.86
2023-11-18T00:10:25.235Z,5.85
2023-11-18T00:11:25.183Z,5.82
2023-11-18T00:12:25.146Z,5.78
2023-11-18T00:13:25.192Z,5.76
2023-11-18T00:14:25.120Z,5.72
2023-11-18T00:15:25.086Z,5.68
2023-11-18T00:16:25.141Z,5.65
2023-11-18T00:17:25.054Z,5.63
2023-11-18T00:18:25.075Z,5.61
2023-11-18T00:19:25.152Z,5.61
2023-11-18T00:20:25.041Z,5.60
2023-11-18T00:21:25.023Z,5.57
2023-11-18T00:22:25.035Z,5.57
2023-11-18T00:23:24.976Z,5.54
2023-11-18T00:24:24.983Z,5.53
2023-11-18T00:25:25.069Z,5.53
2023-11-18T00:26:24.960Z,5.48
2023-11-18T00:27:24.939Z,5.46
2023-11-18T00:28:25.024Z,5.45
2023-11-18T00:29:24.945Z,5.45
2023-11-18T00:30:24.947Z,5.45
2023-11-18T00:31:24.992Z,5.43
2023-11-18T00:32:25.128Z,5.40
2023-11-18T00:33:24.938Z,5.39
2023-11-18T00:34:24.951Z,5.35
2023-11-18T00:35:24.860Z,5.31
2023-11-18T00:36:24.911Z,5.28
2023-11-18T00:37:24.858Z,5.25
2023-11-18T00:38:24.835Z,5.22
2023-11-18T00:39:24.809Z,5.20
2023-11-18T00:40:24.844Z,5.15
2023-11-18T00:41:24.849Z,5.17
2023-11-18T00:42:24.776Z,5.09
2023-11-18T00:43:24.838Z,5.06
2023-11-18T00:44:24.788Z,5.07
2023-11-18T00:45:24.757Z,5.07
2023-11-18T00:46:24.818Z,5.03
2023-11-18T00:47:24.762Z,5.00
2023-11-18T00:48:24.745Z,4.96
2023-11-18T00:49:24.850Z,4.91
2023-11-18T00:50:24.708Z,4.89
2023-11-18T00:51:24.703Z,4.88
2023-11-18T00:52:24.732Z,4.84
2023-11-18T00:53:24.688Z,4.82
2023-11-18T00:54:24.634Z,4.78
2023-11-18T00:55:24.649Z,4.75
2023-11-18T00:56:24.661Z,4.73
2023-11-18T00:57:24.638Z,4.73
2023-11-18T00:58:24.675Z,4.69
2023-11-18T00:59:24.610Z,4.65
2023-11-18T01:00:24.600Z,4.65
2023-11-18T01:01:24.633Z,4.63
2023-11-18T01:02:24.681Z,4.63
2023-11-18T01:03:24.671Z,4.62
2023-11-18T01:04:24.529Z,4.58
2023-11-18T01:05:24.520Z,4.62
2023-11-18T01:06:24.526Z,4.59
2023-11-18T01:07:24.538Z,4.54
2023-11-18T01:08:24.512Z,4.52
2023-11-18T01:09:24.461Z,4.52
2023-11-18T01:10:24.466Z,4.52
2023-11-18T01:11:24.477Z,4.51
2023-11-18T01:12:24.428Z,4.51
2023-11-18T01:13:24.456Z,4.50
2023-11-18T01:14:24.455Z,4.47
2023-11-18T01:15:24.412Z,4.42
2023-11-18T01:16:24.413Z,4.36
2023-11-18T01:17:24.409Z,4.29
2023-11-18T01:18:24.452Z,4.26
2023-11-18T01:19:24.362Z,4.24
2023-11-18T01:20:24.367Z,4.18
2023-11-18T01:21:24.363Z,4.20
2023-11-18T01:22:24.366Z,4.18
2023-11-18T01:23:24.310Z,4.18
2023-11-18T01:24:24.317Z,4.15
2023-11-18T01:25:24.297Z,4.18
2023-11-18T01:26:24.285Z,4.18
2023-11-18T01:27:24.258Z,4.16
2023-11-18T01:28:24.295Z,4.15
2023-11-18T01:29:24.254Z,4.16
2023-11-18T01:30:24.235Z,4.15
2023-11-18T01:31:24.227Z,4.12
2023-11-18T01:32:24.397Z,4.14
2023-11-18T01:33:24.282Z,4.15
2023-11-18T01:34:24.238Z,4.14
2023-11-18T01:35:24.173Z,4.09
2023-11-18T01:36:24.208Z,4.12
2023-11-18T01:37:24.158Z,4.12
2023-11-18T01:38:24.132Z,4.12
2023-11-18T01:39:24.128Z,4.12
2023-11-18T01:40:24.153Z,4.12
2023-11-18T01:41:24.130Z,4.12
2023-11-18T01:42:24.122Z,4.12
2023-11-18T01:43:24.104Z,4.09
2023-11-18T01:44:24.095Z,4.09
2023-11-18T01:45:24.092Z,4.08
2023-11-18T01:46:24.139Z,4.06
2023-11-18T01:47:24.060Z,4.08
2023-11-18T01:48:24.039Z,4.11
2023-11-18T01:49:24.017Z,4.11
2023-11-18T01:50:24.025Z,4.12
2023-11-18T01:51:24.057Z,4.12
2023-11-18T01:52:23.994Z,4.12
2023-11-18T01:53:23.968Z,4.14
2023-11-18T01:54:23.976Z,4.16
2023-11-18T01:55:23.974Z,4.18
2023-11-18T01:56:23.965Z,4.20
2023-11-18T01:57:23.921Z,4.22
2023-11-18T01:58:23.958Z,4.20
2023-11-18T01:59:23.915Z,4.18
2023-11-18T02:00:23.914Z,4.15
2023-11-18T02:01:23.948Z,4.16
2023-11-18T02:02:24.127Z,4.14
2023-11-18T02:03:24.126Z,4.15
2023-11-18T02:04:23.995Z,4.15
2023-11-18T02:05:23.944Z,4.14
2023-11-18T02:06:23.829Z,4.14
2023-11-18T02:07:23.844Z,4.15
2023-11-18T02:08:23.828Z,4.15
2023-11-18T02:09:23.810Z,4.11
2023-11-18T02:10:23.812Z,4.11
2023-11-18T02:11:23.774Z,4.09
2023-11-18T02:12:23.802Z,4.08
2023-11-18T02:13:23.743Z,4.06
2023-11-18T02:14:23.763Z,4.05
2023-11-18T02:15:23.777Z,4.02
2023-11-18T02:16:23.724Z,3.96
2023-11-18T02:17:23.696Z,3.91
2023-11-18T02:18:23.770Z,3.88
2023-11-18T02:19:23.695Z,3.84
2023-11-18T02:20:23.724Z,3.84
2023-11-18T02:21:23.673Z,3.80
2023-11-18T02:22:23.658Z,3.76
2023-11-18T02:23:23.642Z,3.75
2023-11-18T02:24:23.620Z,3.73
2023-11-18T02:25:23.682Z,3.73
2023-11-18T02:26:23.623Z,3.75
2023-11-18T02:27:23.714Z,3.70
2023-11-18T02:28:23.600Z,3.72
2023-11-18T02:29:23.661Z,3.70
2023-11-18T02:30:23.550Z,3.69
2023-11-18T02:31:23.614Z,3.70
2023-11-18T02:32:23.567Z,3.69
2023-11-18T02:33:23.682Z,3.68
2023-11-18T02:34:23.532Z,3.70
2023-11-18T02:35:23.521Z,3.72
2023-11-18T02:36:23.500Z,3.69
2023-11-18T02:37:23.522Z,3.68
2023-11-18T02:38:23.511Z,3.69
2023-11-18T02:39:23.486Z,3.66
2023-11-18T02:40:23.452Z,3.61
2023-11-18T02:41:23.435Z,3.62
2023-11-18T02:42:23.429Z,3.65
2023-11-18T02:43:23.442Z,3.62
2023-11-18T02:44:23.395Z,3.60
2023-11-18T02:45:23.422Z,3.60
2023-11-18T02:46:23.411Z,3.57
2023-11-18T02:47:23.364Z,3.54
2023-11-18T02:48:23.427Z,3.54
2023-11-18T02:49:23.348Z,3.55
2023-11-18T02:50:23.355Z,3.55
2023-11-18T02:51:23.326Z,3.57
2023-11-18T02:52:23.316Z,3.55
2023-11-18T02:53:23.336Z,3.52
2023-11-18T02:54:23.298Z,3.50
2023-11-18T02:55:23.272Z,3.48
2023-11-18T02:56:23.273Z,3.47
2023-11-18T02:57:23.241Z,3.47
2023-11-18T02:58:23.298Z,3.47
2023-11-18T02:59:23.266Z,3.52
2023-11-18T03:00:23.342Z,3.52
2023-11-18T03:01:23.221Z,3.55
2023-11-18T03:02:23.261Z,3.52
2023-11-18T03:03:23.298Z,3.55
2023-11-18T03:04:23.232Z,3.57
2023-11-18T03:05:23.179Z,3.58
2023-11-18T03:06:23.154Z,3.57
2023-11-18T03:07:23.148Z,3.54
2023-11-18T03:08:23.157Z,3.50
2023-11-18T03:09:23.145Z,3.47
2023-11-18T03:10:23.486Z,3.47
2023-11-18T03:11:23.092Z,3.45
2023-11-18T03:12:25.054Z,3.40
2023-11-18T03:13:23.074Z,3.36
2023-11-18T03:14:23.096Z,3.35
2023-11-18T03:15:23.536Z,3.33
2023-11-18T03:16:23.089Z,3.29
2023-11-18T03:17:23.135Z,3.26
2023-11-18T03:18:23.003Z,3.24
2023-11-18T03:19:23.011Z,3.20
2023-11-18T03:20:23.014Z,3.18
2023-11-18T03:21:22.990Z,3.18
2023-11-18T03:22:23.018Z,3.15
2023-11-18T03:23:22.958Z,3.14
2023-11-18T03:24:22.941Z,3.11
2023-11-18T03:25:23.377Z,3.08
2023-11-18T03:26:22.940Z,3.05
2023-11-18T03:27:22.948Z,3.05
2023-11-18T03:28:22.902Z,3.05
2023-11-18T03:29:22.888Z,3.05
2023-11-18T03:30:22.918Z,3.06
2023-11-18T03:31:22.885Z,3.06
2023-11-18T03:32:22.837Z,3.06
2023-11-18T03:33:22.850Z,3.08
2023-11-18T03:34:22.919Z,3.10
2023-11-18T03:35:23.001Z,3.13
2023-11-18T03:36:22.837Z,3.15
2023-11-18T03:37:22.806Z,3.20
2023-11-18T03:38:22.769Z,3.21
2023-11-18T03:39:22.797Z,3.21
2023-11-18T03:40:22.751Z,3.23
2023-11-18T03:41:22.757Z,3.24
2023-11-18T03:42:22.744Z,3.26
2023-11-18T03:43:22.725Z,3.26
2023-11-18T03:44:22.704Z,3.26
2023-11-18T03:45:22.727Z,3.26
2023-11-18T03:46:22.739Z,3.28
2023-11-18T03:47:22.689Z,3.29
2023-11-18T03:48:22.654Z,3.29
2023-11-18T03:49:22.680Z,3.33
2023-11-18T03:50:22.659Z,3.33
2023-11-18T03:51:22.657Z,3.33
2023-11-18T03:52:22.637Z,3.35
2023-11-18T03:53:22.592Z,3.35
2023-11-18T03:54:22.621Z,3.36
2023-11-18T03:55:22.581Z,3.39
2023-11-18T03:56:22.596Z,3.40
2023-11-18T03:57:22.558Z,3.40
2023-11-18T03:58:22.549Z,3.42
2023-11-18T03:59:22.546Z,3.47
2023-11-18T04:00:22.564Z,3.48
2023-11-18T04:01:22.563Z,3.52
2023-11-18T04:02:22.596Z,3.52
2023-11-18T04:03:22.492Z,3.54
2023-11-18T04:04:22.536Z,3.57
2023-11-18T04:05:22.523Z,3.58
2023-11-18T04:06:22.484Z,3.58
2023-11-18T04:07:22.484Z,3.57
2023-11-18T04:08:22.448Z,3.54
2023-11-18T04:09:22.451Z,3.54
2023-11-18T04:10:22.424Z,3.54
2023-11-18T04:11:22.445Z,3.52
2023-11-18T04:12:22.402Z,3.54
2023-11-18T04:13:22.407Z,3.51
2023-11-18T04:14:22.362Z,3.52
2023-11-18T04:15:22.374Z,3.52
2023-11-18T04:16:22.395Z,3.54
2023-11-18T04:17:22.518Z,3.55
2023-11-18T04:18:22.360Z,3.57
2023-11-18T04:19:22.342Z,3.57
2023-11-18T04:20:22.306Z,3.57
2023-11-18T04:21:22.327Z,3.60
2023-11-18T04:22:22.270Z,3.60
2023-11-18T04:23:22.280Z,3.61
2023-11-18T04:24:22.257Z,3.62
2023-11-18T04:25:22.277Z,3.66
2023-11-18T04:26:22.241Z,3.68
2023-11-18T04:27:22.222Z,3.70
2023-11-18T04:28:22.270Z,3.69
2023-11-18T04:29:22.200Z,3.69
2023-11-18T04:30:22.205Z,3.69
2023-11-18T04:31:22.213Z,3.69
2023-11-18T04:32:22.164Z,3.70
2023-11-18T04:33:22.169Z,3.70
2023-11-18T04:34:22.135Z,3.73
2023-11-18T04:35:22.142Z,3.73
2023-11-18T04:36:22.133Z,3.73
2023-11-18T04:37:22.154Z,3.75
2023-11-18T04:38:22.124Z,3.78
2023-11-18T04:39:22.072Z,3.79
2023-11-18T04:40:22.092Z,3.80
2023-11-18T04:41:22.086Z,3.83
2023-11-18T04:42:22.082Z,3.86
2023-11-18T04:43:30.880Z,3.88
2023-11-18T04:44:23.079Z,3.88
2023-11-18T04:45:22.022Z,3.90
2023-11-18T04:46:22.025Z,3.90
2023-11-18T04:47:22.073Z,3.88
2023-11-18T04:48:22.103Z,3.87
2023-11-18T04:49:22.069Z,3.88
2023-11-18T04:50:21.965Z,3.84
2023-11-18T04:51:21.959Z,3.83
2023-11-18T04:52:21.993Z,3.76
2023-11-18T04:53:21.955Z,3.70
2023-11-18T04:54:21.963Z,3.65
2023-11-18T04:55:21.900Z,3.62
2023-11-18T04:56:21.883Z,3.58
2023-11-18T04:57:21.897Z,3.55
2023-11-18T04:58:21.902Z,3.52
2023-11-18T04:59:21.874Z,3.50
2023-11-18T05:00:21.869Z,3.45
2023-11-18T05:01:21.893Z,3.40
2023-11-18T05:02:21.912Z,3.36
2023-11-18T05:03:21.934Z,3.36
2023-11-18T05:04:21.818Z,3.39
2023-11-18T05:05:21.802Z,3.36
2023-11-18T05:06:21.801Z,3.36
2023-11-18T05:07:21.765Z,3.35
2023-11-18T05:08:22.010Z,3.32
2023-11-18T05:09:21.745Z,3.31
2023-11-18T05:10:21.769Z,3.31
2023-11-18T05:11:21.756Z,3.28
2023-11-18T05:12:21.764Z,3.28
2023-11-18T05:13:21.705Z,3.26
2023-11-18T05:14:21.689Z,3.26
2023-11-18T05:15:21.695Z,3.24
2023-11-18T05:16:21.716Z,3.23
2023-11-18T05:17:21.747Z,3.21
2023-11-18T05:18:21.703Z,3.24
2023-11-18T05:19:21.645Z,3.21
2023-11-18T05:20:21.637Z,3.21
2023-11-18T05:21:21.635Z,3.23
2023-11-18T05:22:21.616Z,3.21
2023-11-18T05:23:21.602Z,3.21
2023-11-18T05:24:21.572Z,3.23
2023-11-18T05:25:21.619Z,3.20
2023-11-18T05:26:21.572Z,3.18
2023-11-18T05:27:21.550Z,3.18
2023-11-18T05:28:21.540Z,3.18
2023-11-18T05:29:21.515Z,3.17
2023-11-18T05:30:21.537Z,3.18
2023-11-18T05:31:21.535Z,3.17
2023-11-18T05:32:21.485Z,3.17
2023-11-18T05:33:21.524Z,3.15
2023-11-18T05:34:21.461Z,3.15
2023-11-18T05:35:21.481Z,3.17
2023-11-18T05:36:21.427Z,3.20
2023-11-18T05:37:21.469Z,3.20
2023-11-18T05:38:21.419Z,3.18
2023-11-18T05:39:21.423Z,3.17
2023-11-18T05:40:21.401Z,3.17
2023-11-18T05:41:21.392Z,3.17
2023-11-18T05:42:21.364Z,3.17
2023-11-18T05:43:21.397Z,3.17
2023-11-18T05:44:21.385Z,3.15
2023-11-18T05:45:21.329Z,3.14
2023-11-18T05:46:21.737Z,3.14
2023-11-18T05:47:21.341Z,3.14
2023-11-18T05:48:21.310Z,3.14
2023-11-18T05:49:21.335Z,3.14
2023-11-18T05:50:21.321Z,3.15
2023-11-18T05:51:21.326Z,3.20
2023-11-18T05:52:21.247Z,3.21
2023-11-18T05:53:22.890Z,3.23
2023-11-18T05:54:21.265Z,3.26
2023-11-18T05:55:21.214Z,3.23
2023-11-18T05:56:21.248Z,3.23
2023-11-18T05:57:21.245Z,3.18
2023-11-18T05:58:21.193Z,3.15
2023-11-18T05:59:21.192Z,3.11
2023-11-18T06:00:27.469Z,3.11
2023-11-18T06:01:22.264Z,3.03
2023-11-18T06:02:21.204Z,3.00
2023-11-18T06:03:21.299Z,2.96
2023-11-18T06:04:21.181Z,2.93
2023-11-18T06:05:21.135Z,2.89
2023-11-18T06:06:23.791Z,2.87
2023-11-18T06:07:21.105Z,2.84
2023-11-18T06:08:21.085Z,2.85
2023-11-18T06:09:21.053Z,2.87
2023-11-18T06:10:21.062Z,2.89
2023-11-18T06:11:21.172Z,2.95
2023-11-18T06:12:21.031Z,2.97
2023-11-18T06:13:21.020Z,3.00
2023-11-18T06:14:21.056Z,3.03
2023-11-18T06:15:20.991Z,3.03
2023-11-18T06:16:21.021Z,3.03
2023-11-18T06:17:21.101Z,3.05
2023-11-18T06:18:20.989Z,3.03
2023-11-18T06:19:21.011Z,3.06
2023-11-18T06:20:20.938Z,3.06
2023-11-18T06:21:20.981Z,3.08
2023-11-18T06:22:21.989Z,3.10
2023-11-18T06:23:20.919Z,3.11
2023-11-18T06:24:20.903Z,3.14
2023-11-18T06:25:20.922Z,3.11
2023-11-18T06:26:20.878Z,3.14
2023-11-18T06:27:20.861Z,3.17
2023-11-18T06:28:20.863Z,3.18
2023-11-18T06:29:20.875Z,3.20
2023-11-18T06:30:20.886Z,3.21
2023-11-18T06:31:20.840Z,3.23
2023-11-18T06:32:20.922Z,3.23
2023-11-18T06:33:20.850Z,3.26
2023-11-18T06:34:20.785Z,3.28
2023-11-18T06:35:20.778Z,3.26
2023-11-18T06:36:20.780Z,3.28
2023-11-18T06:37:20.741Z,3.28
2023-11-18T06:38:20.794Z,3.28
2023-11-18T06:39:20.722Z,3.26
2023-11-18T06:40:20.723Z,3.28
2023-11-18T06:41:20.784Z,3.26
2023-11-18T06:42:20.692Z,3.28
2023-11-18T06:43:20.717Z,3.29
2023-11-18T06:44:20.729Z,3.28
2023-11-18T06:45:20.667Z,3.28
2023-11-18T06:46:20.662Z,3.29
2023-11-18T06:47:20.838Z,3.29
2023-11-18T06:48:20.634Z,3.28
2023-11-18T06:49:20.714Z,3.29
2023-11-18T06:50:20.685Z,3.28
2023-11-18T06:51:20.584Z,3.29
2023-11-18T06:52:20.604Z,3.28
2023-11-18T06:53:20.630Z,3.31
2023-11-18T06:54:20.562Z,3.29
2023-11-18T06:55:20.575Z,3.29
2023-11-18T06:56:20.575Z,3.28
2023-11-18T06:57:20.562Z,3.24
2023-11-18T06:58:20.526Z,3.24
2023-11-18T06:59:20.533Z,3.23
2023-11-18T07:00:20.522Z,3.21
2023-11-18T07:01:20.562Z,3.21
2023-11-18T07:02:20.508Z,3.18
2023-11-18T07:03:20.548Z,3.17
2023-11-18T07:04:20.482Z,3.14
2023-11-18T07:05:20.535Z,3.14
2023-11-18T07:06:20.418Z,3.11
2023-11-18T07:07:20.415Z,3.15
2023-11-18T07:08:20.424Z,3.14
2023-11-18T07:09:20.432Z,3.14
2023-11-18T07:10:20.433Z,3.18
2023-11-18T07:11:20.376Z,3.20
2023-11-18T07:12:20.406Z,3.21
2023-11-18T07:13:20.341Z,3.26
2023-11-18T07:14:20.420Z,3.26
2023-11-18T07:15:20.379Z,3.28
2023-11-18T07:16:20.426Z,3.32
2023-11-18T07:17:20.357Z,3.33
2023-11-18T07:18:20.327Z,3.40
2023-11-18T07:19:20.280Z,3.42
2023-11-18T07:20:20.318Z,3.47
2023-11-18T07:21:20.277Z,3.50
2023-11-18T07:22:20.231Z,3.51
2023-11-18T07:23:20.315Z,3.54
2023-11-18T07:24:20.213Z,3.57
2023-11-18T07:25:20.216Z,3.60
2023-11-18T07:26:20.254Z,3.62
2023-11-18T07:27:20.223Z,3.66
2023-11-18T07:28:20.175Z,3.69
2023-11-18T07:29:20.210Z,3.70
2023-11-18T07:30:20.161Z,3.73
2023-11-18T07:31:20.394Z,3.75
2023-11-18T07:32:20.155Z,3.75
2023-11-18T07:33:20.160Z,3.75
2023-11-18T07:34:20.141Z,3.78
2023-11-18T07:35:20.231Z,3.79
2023-11-18T07:36:20.117Z,3.83
2023-11-18T07:37:20.069Z,3.84
2023-11-18T07:38:20.126Z,3.84
2023-11-18T07:39:20.110Z,3.84
2023-11-18T07:40:20.069Z,3.86
2023-11-18T07:41:20.037Z,3.87
2023-11-18T07:42:20.036Z,3.88
2023-11-18T07:43:19.982Z,3.88
2023-11-18T07:44:20.050Z,3.88
2023-11-18T07:45:19.992Z,3.93
2023-11-18T07:46:20.028Z,3.94
2023-11-18T07:47:19.992Z,3.96
2023-11-18T07:48:19.964Z,4.00
2023-11-18T07:49:19.955Z,4.04
2023-11-18T07:50:19.962Z,4.08
2023-11-18T07:51:19.932Z,4.09
2023-11-18T07:52:19.904Z,4.14
2023-11-18T07:53:19.943Z,4.20
2023-11-18T07:54:19.889Z,4.22
2023-11-18T07:55:19.871Z,4.24
2023-11-18T07:56:19.907Z,4.26
2023-11-18T07:57:19.845Z,4.26
2023-11-18T07:58:19.859Z,4.30
2023-11-18T07:59:19.908Z,4.27
2023-11-18T08:00:19.791Z,4.27
2023-11-18T08:01:19.868Z,4.24
2023-11-18T08:02:19.908Z,4.26
2023-11-18T08:03:19.809Z,4.27
2023-11-18T08:04:19.799Z,4.30
2023-11-18T08:05:19.813Z,4.34
2023-11-18T08:06:19.760Z,4.37
2023-11-18T08:07:19.794Z,4.42
2023-11-18T08:08:19.820Z,4.45
2023-11-18T08:09:19.709Z,4.48
2023-11-18T08:10:20.589Z,4.54
2023-11-18T08:11:19.701Z,4.55
2023-11-18T08:12:19.664Z,4.59
2023-11-18T08:13:19.745Z,4.60
2023-11-18T08:14:19.679Z,4.66
2023-11-18T08:15:19.644Z,4.72
2023-11-18T08:16:19.709Z,4.77
2023-11-18T08:17:19.668Z,4.78
2023-11-18T08:18:19.659Z,4.82
2023-11-18T08:19:19.595Z,4.88
2023-11-18T08:20:19.590Z,4.97
2023-11-18T08:21:19.570Z,5.06
2023-11-18T08:22:19.541Z,5.10
2023-11-18T08:23:19.616Z,5.18
2023-11-18T08:24:19.536Z,5.24
2023-11-18T08:25:19.503Z,5.28
2023-11-18T08:26:19.545Z,5.36
2023-11-18T08:27:19.523Z,5.42
2023-11-18T08:28:19.522Z,5.45
2023-11-18T08:29:19.525Z,5.49
2023-11-18T08:30:19.601Z,5.56
2023-11-18T08:31:19.487Z,5.65
2023-11-18T08:32:19.443Z,5.75
2023-11-18T08:33:19.516Z,5.85
2023-11-18T08:34:19.450Z,5.96
2023-11-18T08:35:19.466Z,6.03
2023-11-18T08:36:19.413Z,6.04
2023-11-18T08:37:19.402Z,6.00
2023-11-18T08:38:19.450Z,5.93
2023-11-18T08:39:19.347Z,5.89
2023-11-18T08:40:19.377Z,5.86
2023-11-18T08:41:19.353Z,5.86
2023-11-18T08:42:19.338Z,5.86
2023-11-18T08:43:19.330Z,5.90
2023-11-18T08:44:24.141Z,5.89
2023-11-18T08:45:20.321Z,5.86
2023-11-18T08:46:19.392Z,5.91
2023-11-18T08:47:19.267Z,5.90
2023-11-18T08:48:19.251Z,5.86
2023-11-18T08:49:19.246Z,5.79
2023-11-18T08:50:19.239Z,5.76
2023-11-18T08:51:19.223Z,5.79
2023-11-18T08:52:19.205Z,5.81
2023-11-18T08:53:19.925Z,5.85
2023-11-18T08:54:19.232Z,5.91
2023-11-18T08:55:19.256Z,5.94
2023-11-18T08:56:19.224Z,5.93
2023-11-18T08:57:19.138Z,5.97
2023-11-18T08:58:19.130Z,6.00
2023-11-18T08:59:19.189Z,6.08
2023-11-18T09:00:19.100Z,6.14
2023-11-18T09:01:19.161Z,6.22
2023-11-18T09:02:19.136Z,6.31
2023-11-18T09:03:19.316Z,6.36
2023-11-18T09:04:19.197Z,6.46
2023-11-18T09:05:19.068Z,6.55
2023-11-18T09:06:19.669Z,6.62
2023-11-18T09:07:19.038Z,6.66
2023-11-18T09:08:19.034Z,6.71
2023-11-18T09:09:19.042Z,6.74
2023-11-18T09:10:18.991Z,6.81
2023-11-18T09:11:19.055Z,6.79
2023-11-18T09:12:18.956Z,6.79
2023-11-18T09:13:18.952Z,6.87
2023-11-18T09:14:18.997Z,6.89
2023-11-18T09:15:18.946Z,6.92
2023-11-18T09:16:18.940Z,6.97
2023-11-18T09:17:19.016Z,6.98
2023-11-18T09:18:18.965Z,7.02
2023-11-18T09:19:18.897Z,7.05
2023-11-18T09:20:18.944Z,7.10
2023-11-18T09:21:18.883Z,7.16
2023-11-18T09:22:18.862Z,7.15
2023-11-18T09:23:18.931Z,7.05
2023-11-18T09:24:18.875Z,6.95
2023-11-18T09:25:18.824Z,6.97
2023-11-18T09:26:19.014Z,6.97
2023-11-18T09:27:18.790Z,6.92
2023-11-18T09:28:18.812Z,6.91
2023-11-18T09:29:18.852Z,7.02
2023-11-18T09:30:18.789Z,7.07
2023-11-18T09:31:18.775Z,7.16
2023-11-18T09:32:18.788Z,7.25
2023-11-18T09:33:18.737Z,7.25
2023-11-18T09:34:18.761Z,7.30
2023-11-18T09:35:18.732Z,7.42
2023-11-18T09:36:18.698Z,7.60
2023-11-18T09:37:18.671Z,7.79
2023-11-18T09:38:18.709Z,7.83
2023-11-18T09:39:18.703Z,7.79
2023-11-18T09:40:18.662Z,7.87
2023-11-18T09:41:18.800Z,7.95
2023-11-18T09:42:18.636Z,8.19
2023-11-18T09:43:18.595Z,8.61
2023-11-18T09:44:18.668Z,9.11
2023-11-18T09:45:18.581Z,9.43
2023-11-18T09:46:18.757Z,9.51
2023-11-18T09:47:18.594Z,9.57
2023-11-18T09:48:18.543Z,9.54
2023-11-18T09:49:18.598Z,9.18
2023-11-18T09:50:18.564Z,8.89
2023-11-18T09:51:18.559Z,8.52
2023-11-18T09:52:18.528Z,8.29
2023-11-18T09:53:18.533Z,8.19
2023-11-18T09:54:18.490Z,8.15
2023-11-18T09:55:18.475Z,8.10
2023-11-18T09:56:18.584Z,8.05
2023-11-18T09:57:18.470Z,8.04
2023-11-18T09:58:18.428Z,8.02
2023-11-18T09:59:18.460Z,7.98
2023-11-18T10:00:18.432Z,7.98
2023-11-18T10:01:18.418Z,7.98
2023-11-18T10:02:18.461Z,7.95
2023-11-18T10:03:18.452Z,7.95
2023-11-18T10:04:18.451Z,8.01
2023-11-18T10:05:18.415Z,8.05
2023-11-18T10:06:18.367Z,8.11
2023-11-18T10:07:18.347Z,8.22
2023-11-18T10:08:18.386Z,8.28
2023-11-18T10:09:18.328Z,8.41
2023-11-18T10:10:18.338Z,8.53
2023-11-18T10:11:18.325Z,8.71
2023-11-18T10:12:18.277Z,8.89
2023-11-18T10:13:18.329Z,9.18
2023-11-18T10:14:18.353Z,9.65
2023-11-18T10:15:18.319Z,10.01
2023-11-18T10:16:18.236Z,10.38
2023-11-18T10:17:18.258Z,10.71
2023-11-18T10:18:18.336Z,10.97
2023-11-18T10:19:18.182Z,11.29
2023-11-18T10:20:18.247Z,11.25
2023-11-18T10:21:18.200Z,11.10
2023-11-18T10:22:18.169Z,11.09
2023-11-18T10:23:18.210Z,11.15
2023-11-18T10:24:18.138Z,11.15
2023-11-18T10:25:18.154Z,11.09
2023-11-18T10:26:18.146Z,11.18
2023-11-18T10:27:18.141Z,11.33
2023-11-18T10:28:18.087Z,11.39
2023-11-18T10:29:18.115Z,11.29
2023-11-18T10:30:18.087Z,11.25
2023-11-18T10:31:18.062Z,11.32
2023-11-18T10:32:18.093Z,11.42
2023-11-18T10:33:18.087Z,11.52
2023-11-18T10:34:18.104Z,11.47
2023-11-18T10:35:18.144Z,11.18
2023-11-18T10:36:18.018Z,10.96
2023-11-18T10:37:18.003Z,10.89
2023-11-18T10:38:18.071Z,10.78
2023-11-18T10:39:17.979Z,10.78
2023-11-18T10:40:17.994Z,10.55
2023-11-18T10:41:18.112Z,10.44
2023-11-18T10:42:17.950Z,10.36
2023-11-18T10:43:17.942Z,10.42
2023-11-18T10:44:17.950Z,10.44
2023-11-18T10:45:17.970Z,10.45
2023-11-18T10:46:18.048Z,10.30
2023-11-18T10:47:17.926Z,10.27
2023-11-18T10:48:18.195Z,10.33
2023-11-18T10:49:17.883Z,10.18
2023-11-18T10:50:17.885Z,10.11
2023-11-18T10:51:17.908Z,10.07
2023-11-18T10:52:17.840Z,10.17
2023-11-18T10:53:17.862Z,10.36
2023-11-18T10:54:17.834Z,10.55
2023-11-18T10:55:17.800Z,10.67
2023-11-18T10:56:17.887Z,10.76
2023-11-18T10:57:17.786Z,10.70
2023-11-18T10:58:17.772Z,10.84
2023-11-18T10:59:17.868Z,10.94
2023-11-18T11:00:17.756Z,11.22
2023-11-18T11:01:17.791Z,11.39
2023-11-18T11:02:17.796Z,11.55
2023-11-18T11:03:17.730Z,11.94
2023-11-18T11:04:17.706Z,12.17
2023-11-18T11:05:21.290Z,12.35
2023-11-18T11:06:18.749Z,12.64
2023-11-18T11:07:17.672Z,12.83
2023-11-18T11:08:26.679Z,12.78
2023-11-18T11:09:18.658Z,12.86
2023-11-18T11:10:17.782Z,12.97
2023-11-18T11:11:17.699Z,12.97
2023-11-18T11:12:17.641Z,13.20
2023-11-18T11:13:17.624Z,13.32
2023-11-18T11:14:17.610Z,13.46
2023-11-18T11:15:17.560Z,13.63
2023-11-18T11:16:17.701Z,13.44
2023-11-18T11:17:19.957Z,13.38
2023-11-18T11:18:18.630Z,13.41
2023-11-18T11:19:17.511Z,13.38
2023-11-18T11:20:17.529Z,12.60
2023-11-18T11:21:18.032Z,12.56
2023-11-18T11:22:17.471Z,12.52
2023-11-18T11:23:20.222Z,12.21
2023-11-18T11:24:17.458Z,12.23
2023-11-18T11:25:17.455Z,12.41
2023-11-18T11:26:17.494Z,12.54
2023-11-18T11:27:17.460Z,12.77
2023-11-18T11:28:17.481Z,13.03
2023-11-18T11:29:19.444Z,13.28
2023-11-18T11:30:17.410Z,13.54
2023-11-18T11:31:17.479Z,13.54
2023-11-18T11:32:17.416Z,13.62
2023-11-18T11:33:17.351Z,13.73
2023-11-18T11:34:17.430Z,13.91
2023-11-18T11:35:17.410Z,14.10
2023-11-18T11:36:17.513Z,14.42
2023-11-18T11:37:17.300Z,14.27
2023-11-18T11:38:17.359Z,14.18
2023-11-18T11:39:20.166Z,14.45
2023-11-18T11:40:17.321Z,14.54
2023-11-18T11:41:17.307Z,14.64
2023-11-18T11:42:17.262Z,14.75
2023-11-18T11:43:17.242Z,14.81
2023-11-18T11:44:17.311Z,14.77
2023-11-18T11:45:17.214Z,14.78
2023-11-18T11:46:17.278Z,14.91
2023-11-18T11:47:17.515Z,14.80
2023-11-18T11:48:17.326Z,14.65
2023-11-18T11:49:17.180Z,14.77
2023-11-18T11:50:17.186Z,14.78
2023-11-18T11:51:17.180Z,14.61
2023-11-18T11:52:17.132Z,14.40
2023-11-18T11:53:17.165Z,14.35
2023-11-18T11:54:17.147Z,14.50
2023-11-18T11:55:17.109Z,14.51
2023-11-18T11:56:17.221Z,14.69
2023-11-18T11:57:17.089Z,14.80
2023-11-18T11:58:17.070Z,14.77
2023-11-18T11:59:17.113Z,14.73
2023-11-18T12:00:17.336Z,14.58
2023-11-18T12:01:17.076Z,14.20
2023-11-18T12:02:17.239Z,14.06
2023-11-18T12:03:17.075Z,13.79
2023-11-18T12:04:17.060Z,13.45
2023-11-18T12:05:17.051Z,13.44
2023-11-18T12:06:17.014Z,13.46
2023-11-18T12:07:20.806Z,13.52
2023-11-18T12:08:16.993Z,13.48
2023-11-18T12:09:16.970Z,13.44
2023-11-18T12:10:16.999Z,13.29
2023-11-18T12:11:17.050Z,13.22
2023-11-18T12:12:16.942Z,13.25
2023-11-18T12:13:16.919Z,13.42
2023-11-18T12:14:16.967Z,13.49
2023-11-18T12:15:16.928Z,13.62
2023-11-18T12:16:16.927Z,13.79
2023-11-18T12:17:16.906Z,13.95
2023-11-18T12:18:16.904Z,13.88
2023-11-18T12:19:16.895Z,13.60
2023-11-18T12:20:16.908Z,13.23
2023-11-18T12:21:16.826Z,12.90
2023-11-18T12:22:16.830Z,12.62
2023-11-18T12:23:17.260Z,12.41
2023-11-18T12:24:16.793Z,12.19
2023-11-18T12:25:16.813Z,12.17
2023-11-18T12:26:16.878Z,12.23
2023-11-18T12:27:16.751Z,12.31
2023-11-18T12:28:16.763Z,12.35
2023-11-18T12:29:16.762Z,12.27
2023-11-18T12:30:16.783Z,11.95
2023-11-18T12:31:16.804Z,11.60
2023-11-18T12:32:16.749Z,11.40
2023-11-18T12:33:16.744Z,11.29
2023-11-18T12:34:16.661Z,11.21
2023-11-18T12:35:16.720Z,11.11
2023-11-18T12:36:16.638Z,11.10
2023-11-18T12:37:16.627Z,10.97
2023-11-18T12:38:16.683Z,10.81
2023-11-18T12:39:16.626Z,10.74
2023-11-18T12:40:16.611Z,10.63
2023-11-18T12:41:16.622Z,10.66
2023-11-18T12:42:16.580Z,10.63
2023-11-18T12:43:16.575Z,10.51
2023-11-18T12:44:16.603Z,10.38
2023-11-18T12:45:16.547Z,10.25
2023-11-18T12:46:16.583Z,10.11
2023-11-18T12:47:16.566Z,10.08
2023-11-18T12:48:16.566Z,10.08
2023-11-18T12:49:16.490Z,10.08
2023-11-18T12:50:16.554Z,10.04
2023-11-18T12:51:16.511Z,10.04
2023-11-18T12:52:16.489Z,10.09
2023-11-18T12:53:16.460Z,10.12
2023-11-18T12:54:16.447Z,10.14
2023-11-18T12:55:16.441Z,10.11
2023-11-18T12:56:16.454Z,10.08
2023-11-18T12:57:16.406Z,10.05
2023-11-18T12:58:16.419Z,10.12
2023-11-18T12:59:16.407Z,10.17
2023-11-18T13:00:16.401Z,10.15
2023-11-18T13:01:16.490Z,10.20
2023-11-18T13:02:16.436Z,10.22
2023-11-18T13:03:16.675Z,10.25
2023-11-18T13:04:16.439Z,10.22
2023-11-18T13:05:16.359Z,10.20
2023-11-18T13:06:16.322Z,10.14
2023-11-18T13:07:16.324Z,10.11
2023-11-18T13:08:16.379Z,10.09
2023-11-18T13:09:16.266Z,10.08
2023-11-18T13:10:16.264Z,10.07
2023-11-18T13:11:16.278Z,10.05
2023-11-18T13:12:16.344Z,9.96